Time;durP1;ratioP1;P1;durP2;ratioP2;P2;SDS_P1;SDS_P2;PMS_P1;PMS_P2;Temp;Humidity;BMP_temperature;BMP_pressure;BME280_temperature;BME280_humidity;BME280_pressure;Samples;Min_cycle;Max_cycle;Signal;HPM_P1;HPM_P2
2022/05/22 00:02:07;;;;;;;4.10;3.80;;;13.70;99.90;;;;;;4938132;29;20465;-81
2022/05/22 00:04:35;;;;;;;3.97;3.63;;;13.70;99.90;;;;;;4938582;29;20474;-81
2022/05/22 00:07:02;;;;;;;3.93;3.63;;;13.70;99.90;;;;;;4938464;29;20959;-81
2022/05/22 00:09:29;;;;;;;4.50;4.20;;;13.70;99.90;;;;;;4938696;29;20455;-81
2022/05/22 00:11:56;;;;;;;4.10;3.90;;;13.70;99.90;;;;;;4938780;29;20457;-81
2022/05/22 00:14:25;;;;;;;3.50;3.20;;;13.70;99.90;;;;;;4937658;29;20477;-81
2022/05/22 00:16:53;;;;;;;3.40;3.17;;;13.70;99.90;;;;;;4937390;29;20457;-81
2022/05/22 00:19:23;;;;;;;4.33;3.90;;;13.70;99.90;;;;;;4937631;29;20495;-81
2022/05/22 00:21:50;;;;;;;3.53;2.97;;;13.70;99.90;;;;;;4937359;29;20457;-80
2022/05/22 00:24:19;;;;;;;4.80;3.80;;;13.70;99.90;;;;;;4937837;29;20477;-81
2022/05/22 00:26:46;;;;;;;3.90;3.50;;;13.60;99.90;;;;;;4937924;29;20453;-81
2022/05/22 00:29:13;;;;;;;4.23;3.93;;;13.60;99.90;;;;;;4937590;29;20932;-81
2022/05/22 00:31:42;;;;;;;4.23;3.93;;;13.50;99.90;;;;;;4938094;29;20461;-81
2022/05/22 00:34:09;;;;;;;5.33;3.60;;;13.50;99.90;;;;;;4942200;29;20521;-81
2022/05/22 00:36:36;;;;;;;4.67;4.27;;;13.50;99.90;;;;;;4941934;29;20468;-80
2022/05/22 00:39:03;;;;;;;4.97;4.53;;;13.50;99.90;;;;;;4941366;29;20489;-81
2022/05/22 00:41:30;;;;;;;3.67;3.47;;;13.50;99.90;;;;;;4941154;29;20457;-81
2022/05/22 00:43:57;;;;;;;4.03;3.83;;;13.40;99.90;;;;;;4942174;29;20481;-81
2022/05/22 00:46:25;;;;;;;3.93;3.60;;;13.40;99.90;;;;;;4942691;29;20467;-82
2022/05/22 00:48:59;;;;;;;4.47;4.07;;;13.40;99.90;;;;;;4942254;29;20943;-81
2022/05/22 00:51:32;;;;;;;5.13;4.87;;;13.30;99.90;;;;;;4940756;29;20449;-81
2022/05/22 00:54:11;;;;;;;4.70;4.40;;;13.30;99.90;;;;;;4938230;29;20477;-81
2022/05/22 00:56:43;;;;;;;4.40;4.10;;;13.30;99.90;;;;;;4936377;29;20448;-81
2022/05/22 00:59:13;;;;;;;4.10;3.80;;;13.30;99.90;;;;;;4939419;29;20481;-81
2022/05/22 01:01:40;;;;;;;4.73;3.70;;;13.20;99.90;;;;;;4941021;29;20460;-81
2022/05/22 01:04:15;;;;;;;4.53;4.23;;;13.20;99.90;;;;;;4941403;29;20480;-81
2022/05/22 01:06:42;;;;;;;4.30;3.90;;;13.20;99.90;;;;;;4940853;29;20457;-81
2022/05/22 01:09:09;;;;;;;4.20;3.90;;;13.10;99.90;;;;;;4944417;29;20964;-82
2022/05/22 01:11:38;;;;;;;3.90;3.60;;;13.10;99.90;;;;;;4947901;29;20465;-81
2022/05/22 01:14:08;;;;;;;3.60;3.30;;;13.20;99.90;;;;;;4941096;29;20555;-82
2022/05/22 01:16:35;;;;;;;4.40;4.00;;;13.10;99.90;;;;;;4941549;29;20462;-82
2022/05/22 01:19:09;;;;;;;4.37;4.07;;;13.10;99.90;;;;;;4940963;29;20478;-82
2022/05/22 01:21:37;;;;;;;4.50;4.13;;;13.10;99.90;;;;;;4941155;29;20464;-82
2022/05/22 01:24:06;;;;;;;4.43;4.23;;;13.10;99.90;;;;;;4939659;29;20480;-82
2022/05/22 01:26:32;;;;;;;5.23;4.83;;;13.00;99.90;;;;;;4941997;29;20449;-82
2022/05/22 01:28:59;;;;;;;5.73;5.23;;;13.00;99.90;;;;;;4942867;29;20453;-82
2022/05/22 01:31:26;;;;;;;5.67;5.17;;;13.00;99.90;;;;;;4940262;29;20974;-82
2022/05/22 01:33:53;;;;;;;6.30;5.77;;;13.00;99.90;;;;;;4941718;29;20446;-81
2022/05/22 01:36:19;;;;;;;11.13;6.63;;;12.90;99.90;;;;;;4941067;29;20468;-82
2022/05/22 01:38:46;;;;;;;5.50;5.00;;;12.90;99.90;;;;;;4941037;29;20442;-82
2022/05/22 01:41:14;;;;;;;6.37;5.87;;;12.90;99.90;;;;;;4941103;29;20959;-82
2022/05/22 01:43:41;;;;;;;7.70;5.60;;;12.90;99.90;;;;;;4939494;29;20507;-81
2022/05/22 01:46:08;;;;;;;6.40;5.90;;;12.90;99.90;;;;;;4941057;29;20454;-82
2022/05/22 01:48:35;;;;;;;7.00;6.40;;;12.80;99.90;;;;;;4941457;29;20485;-81
2022/05/22 01:51:02;;;;;;;7.77;6.80;;;12.90;99.90;;;;;;4940559;29;20441;-82
2022/05/22 01:53:29;;;;;;;6.60;6.00;;;12.80;99.90;;;;;;4940558;29;20485;-82
2022/05/22 01:59:18;;;;;;;7.10;6.63;;;12.80;99.90;;;;;;4939388;29;20854;-81
2022/05/22 02:01:45;;;;;;;6.60;6.10;;;12.80;99.90;;;;;;4938491;29;20450;-81
2022/05/22 02:04:12;;;;;;;6.17;5.67;;;12.70;99.90;;;;;;4943577;29;20466;-81
2022/05/22 02:08:19;;;;;;;6.53;5.10;;;12.70;99.90;;;;;;4944837;29;20488;-81
2022/05/22 02:09:25;;;;;;;6.57;5.97;;;12.70;99.90;;;;;;4944133;29;20533;-80
2022/05/22 02:11:52;;;;;;;5.00;4.50;;;12.60;99.90;;;;;;4943697;29;20488;-82
2022/05/22 02:14:20;;;;;;;4.87;4.40;;;12.60;99.90;;;;;;4943439;29;20233;-82
2022/05/22 02:16:47;;;;;;;4.90;4.50;;;12.60;99.90;;;;;;4943498;29;20493;-81
2022/05/22 02:19:14;;;;;;;4.70;4.30;;;12.60;99.90;;;;;;4943502;29;20493;-81
2022/05/22 02:21:41;;;;;;;5.33;4.93;;;12.60;99.90;;;;;;4943951;29;20457;-81
2022/05/22 02:24:08;;;;;;;4.13;3.80;;;12.60;99.90;;;;;;4943792;29;20481;-79
2022/05/22 02:26:35;;;;;;;4.53;4.13;;;12.60;99.90;;;;;;4943836;29;20453;-81
2022/05/22 02:29:01;;;;;;;4.70;4.30;;;12.60;99.90;;;;;;4943427;29;20453;-81
2022/05/22 02:31:29;;;;;;;5.40;4.40;;;12.60;99.90;;;;;;4943331;29;20450;-81
2022/05/22 02:33:56;;;;;;;4.80;4.40;;;12.60;99.90;;;;;;4943963;29;20980;-81
2022/05/22 02:36:23;;;;;;;4.43;4.20;;;12.60;99.90;;;;;;4943292;29;20465;-81
2022/05/22 02:38:50;;;;;;;5.50;5.00;;;12.60;99.90;;;;;;4943709;29;20469;-81
2022/05/22 02:41:18;;;;;;;5.63;4.90;;;12.60;99.90;;;;;;4943176;29;20493;-82
2022/05/22 02:43:45;;;;;;;5.47;5.07;;;12.60;99.90;;;;;;4942880;29;20495;-81
2022/05/22 02:46:12;;;;;;;7.77;7.07;;;12.70;99.90;;;;;;4943193;29;20458;-81
2022/05/22 02:48:41;;;;;;;6.47;5.43;;;12.60;99.90;;;;;;4943518;29;20448;-82
2022/05/22 02:51:11;;;;;;;5.87;5.37;;;12.60;99.90;;;;;;4943601;29;20797;-81
2022/05/22 02:53:37;;;;;;;5.63;5.03;;;12.60;99.90;;;;;;4943112;29;20482;-82
2022/05/22 02:56:09;;;;;;;5.33;4.93;;;12.60;99.90;;;;;;4923686;29;20454;-81
2022/05/22 02:58:35;;;;;;;5.27;4.83;;;12.60;99.90;;;;;;4924501;29;20466;-81
2022/05/22 03:01:02;;;;;;;5.27;4.67;;;12.60;99.90;;;;;;4923707;29;20493;-81
2022/05/22 03:03:29;;;;;;;4.83;4.53;;;12.60;99.90;;;;;;4928465;29;20476;-82
2022/05/22 03:08:42;;;;;;;5.23;4.80;;;12.60;99.90;;;;;;4929273;29;20445;-81
2022/05/22 03:11:09;;;;;;;6.00;5.40;;;12.50;99.90;;;;;;4942209;29;20824;-81
2022/05/22 03:13:36;;;;;;;6.87;6.27;;;12.50;99.90;;;;;;4943158;29;20473;-81
2022/05/22 03:16:03;;;;;;;5.63;4.43;;;12.50;99.90;;;;;;4943074;29;20466;-81
2022/05/22 03:18:30;;;;;;;4.53;4.23;;;12.50;99.90;;;;;;4941888;29;20456;-82
2022/05/22 03:20:58;;;;;;;4.60;4.30;;;12.50;99.90;;;;;;4942272;29;20498;-81
2022/05/22 03:23:25;;;;;;;5.60;5.20;;;12.40;99.90;;;;;;4942329;29;20488;-82
2022/05/22 03:25:52;;;;;;;5.10;4.70;;;12.40;99.90;;;;;;4942309;29;20457;-82
2022/05/22 03:28:21;;;;;;;5.07;4.77;;;12.40;99.90;;;;;;4942376;29;20465;-82
2022/05/22 03:30:47;;;;;;;5.27;4.87;;;12.30;99.90;;;;;;4941913;29;20950;-82
2022/05/22 03:33:14;;;;;;;5.40;4.87;;;12.30;99.90;;;;;;4942395;29;20457;-81
2022/05/22 03:35:41;;;;;;;6.07;5.67;;;12.30;99.90;;;;;;4941886;29;20477;-81
2022/05/22 03:38:09;;;;;;;6.53;5.93;;;12.30;99.90;;;;;;4942392;29;20955;-82
2022/05/22 03:40:40;;;;;;;13.50;6.30;;;12.30;99.90;;;;;;4922805;29;20492;-82
2022/05/22 03:43:07;;;;;;;6.97;6.37;;;12.20;99.90;;;;;;4923584;29;20533;-81
2022/05/22 03:45:34;;;;;;;7.00;6.50;;;12.30;99.90;;;;;;4942623;29;20477;-81
2022/05/22 03:48:00;;;;;;;7.37;6.87;;;12.30;99.90;;;;;;4942128;29;20449;-81
2022/05/22 03:50:27;;;;;;;8.00;7.40;;;12.30;99.90;;;;;;4942199;29;20449;-82
2022/05/22 03:52:54;;;;;;;6.27;5.83;;;12.30;99.90;;;;;;4942622;29;20465;-81
2022/05/22 03:55:22;;;;;;;7.30;6.70;;;12.20;99.90;;;;;;4942242;29;20465;-82
2022/05/22 03:57:49;;;;;;;7.87;7.07;;;12.20;99.90;;;;;;4941939;29;20965;-81
2022/05/22 04:00:19;;;;;;;6.67;6.17;;;12.30;99.90;;;;;;4941802;29;20479;-82
2022/05/22 04:02:46;;;;;;;8.03;7.30;;;12.30;99.90;;;;;;4941863;29;20465;-81
2022/05/22 04:05:13;;;;;;;7.80;7.00;;;12.30;99.90;;;;;;4942448;29;20484;-81
2022/05/22 04:07:42;;;;;;;9.70;8.60;;;12.30;99.90;;;;;;4943985;29;20471;-82
2022/05/22 04:10:11;;;;;;;6.40;6.00;;;12.30;99.90;;;;;;4945453;29;20468;-82
2022/05/22 04:12:40;;;;;;;8.23;7.73;;;12.30;99.90;;;;;;4946556;29;20474;-81
2022/05/22 04:15:08;;;;;;;7.57;6.93;;;12.30;99.90;;;;;;4946214;29;20529;-82
2022/05/22 04:17:35;;;;;;;7.97;7.27;;;12.30;99.90;;;;;;4945876;29;20452;-82
2022/05/22 04:20:02;;;;;;;6.97;6.40;;;12.30;99.90;;;;;;4945593;29;21026;-81
2022/05/22 04:22:29;;;;;;;7.30;6.80;;;12.30;99.90;;;;;;4946121;29;20483;-81
2022/05/22 04:25:15;;;;;;;9.67;7.80;;;12.40;99.90;;;;;;4946155;29;20473;-82
2022/05/22 04:27:44;;;;;;;8.10;6.37;;;12.30;99.90;;;;;;4945718;29;20449;-81
2022/05/22 04:30:17;;;;;;;6.53;6.00;;;12.30;99.90;;;;;;4945177;29;20450;-81
2022/05/22 04:32:44;;;;;;;7.07;6.50;;;12.30;99.90;;;;;;4945938;29;20461;-81
2022/05/22 04:35:11;;;;;;;6.73;6.13;;;12.30;99.90;;;;;;4945248;29;20650;-81
2022/05/22 04:37:37;;;;;;;8.17;7.57;;;12.30;99.90;;;;;;4945111;29;20461;-81
2022/05/22 04:40:06;;;;;;;7.57;6.90;;;12.30;99.90;;;;;;4945401;29;20584;-82
2022/05/22 04:42:34;;;;;;;8.33;6.53;;;12.30;99.90;;;;;;4945132;29;20457;-81
2022/05/22 04:45:03;;;;;;;6.43;5.93;;;12.40;99.90;;;;;;4945072;29;20501;-82
2022/05/22 04:47:30;;;;;;;7.23;6.63;;;12.50;99.90;;;;;;4945759;29;20453;-81
2022/05/22 04:49:56;;;;;;;10.90;7.23;;;12.50;99.90;;;;;;4944758;29;20461;-80
2022/05/22 04:52:23;;;;;;;7.80;7.10;;;12.50;99.90;;;;;;4945327;29;20454;-81
2022/05/22 04:54:53;;;;;;;6.10;5.60;;;12.60;99.90;;;;;;4945193;29;20477;-81
2022/05/22 04:57:19;;;;;;;6.93;6.23;;;12.70;99.90;;;;;;4945414;29;20463;-81
2022/05/22 04:59:46;;;;;;;6.20;5.60;;;12.70;99.90;;;;;;4944777;29;20827;-81
2022/05/22 05:02:14;;;;;;;6.00;5.50;;;12.70;99.90;;;;;;4945058;29;20457;-81
2022/05/22 05:04:41;;;;;;;6.97;6.27;;;12.80;99.90;;;;;;4944952;29;20487;-80
2022/05/22 05:07:09;;;;;;;5.97;5.57;;;12.90;99.90;;;;;;4945072;29;20544;-80
2022/05/22 05:09:37;;;;;;;7.80;6.57;;;12.90;99.90;;;;;;4945176;29;20454;-80
2022/05/22 05:12:05;;;;;;;5.80;5.37;;;13.00;99.90;;;;;;4944936;29;21079;-81
2022/05/22 05:14:32;;;;;;;6.20;5.60;;;13.10;99.90;;;;;;4945336;29;20485;-80
2022/05/22 05:16:59;;;;;;;4.87;4.57;;;13.10;99.90;;;;;;4945217;29;20462;-80
2022/05/22 05:19:27;;;;;;;5.17;4.77;;;13.20;99.90;;;;;;4944511;29;20462;-81
2022/05/22 05:21:57;;;;;;;8.67;6.03;;;13.10;99.90;;;;;;4944083;29;20496;-80
2022/05/22 05:24:24;;;;;;;5.00;4.60;;;13.10;99.90;;;;;;4944112;29;21054;-80
2022/05/22 05:26:54;;;;;;;5.47;5.07;;;13.10;99.90;;;;;;4944812;29;20459;-81
2022/05/22 05:29:20;;;;;;;5.00;4.23;;;13.30;99.90;;;;;;4945192;29;21005;-80
2022/05/22 05:31:47;;;;;;;5.00;4.60;;;13.40;99.90;;;;;;4944229;29;20966;-80
2022/05/22 05:34:14;;;;;;;4.87;4.43;;;13.50;99.90;;;;;;4944301;29;21037;-80
2022/05/22 05:36:43;;;;;;;4.80;4.40;;;13.60;99.90;;;;;;4944229;29;20460;-81
2022/05/22 05:39:10;;;;;;;5.17;4.67;;;13.60;99.90;;;;;;4944248;29;20457;-81
2022/05/22 05:41:37;;;;;;;4.33;3.93;;;13.70;99.90;;;;;;4943662;29;20493;-81
2022/05/22 05:44:05;;;;;;;4.13;3.83;;;13.90;99.90;;;;;;4944492;29;20826;-81
2022/05/22 05:46:32;;;;;;;3.23;3.03;;;14.00;99.90;;;;;;4944502;29;20525;-80
2022/05/22 05:48:59;;;;;;;3.80;3.50;;;14.10;99.90;;;;;;4943773;29;20453;-81
2022/05/22 05:51:26;;;;;;;4.20;3.83;;;14.20;99.90;;;;;;4944289;29;20453;-81
2022/05/22 05:53:54;;;;;;;5.30;3.40;;;14.20;99.90;;;;;;4943649;29;20846;-81
2022/05/22 05:56:21;;;;;;;3.20;2.90;;;14.40;99.90;;;;;;4943684;29;20458;-81
2022/05/22 05:58:48;;;;;;;4.10;3.00;;;14.40;99.90;;;;;;4943779;29;20458;-80
2022/05/22 06:01:16;;;;;;;3.87;3.57;;;14.50;99.90;;;;;;4943683;29;21009;-81
2022/05/22 06:03:44;;;;;;;3.73;3.33;;;14.60;99.90;;;;;;4925242;29;20478;-81
2022/05/22 06:06:11;;;;;;;3.37;3.17;;;14.70;99.90;;;;;;4924765;29;20535;-81
2022/05/22 06:08:40;;;;;;;3.70;3.37;;;14.80;99.90;;;;;;4943080;29;20447;-81
2022/05/22 06:11:08;;;;;;;4.87;3.30;;;15.00;99.90;;;;;;4943599;29;20445;-81
2022/05/22 06:13:35;;;;;;;3.80;3.47;;;15.10;99.90;;;;;;4942188;29;20474;-81
2022/05/22 06:16:04;;;;;;;3.57;3.27;;;15.20;99.90;;;;;;4941794;29;20446;-82
2022/05/22 06:18:31;;;;;;;3.43;3.20;;;15.40;99.90;;;;;;4943182;29;20476;-80
2022/05/22 06:20:57;;;;;;;3.43;3.20;;;15.50;99.90;;;;;;4942560;29;20481;-79
2022/05/22 06:23:24;;;;;;;4.97;3.80;;;15.60;99.90;;;;;;4943090;29;20484;-82
2022/05/22 06:25:53;;;;;;;3.97;3.67;;;15.80;99.90;;;;;;4943185;29;20463;-83
2022/05/22 06:28:21;;;;;;;4.20;3.57;;;15.90;99.90;;;;;;4943194;29;20469;-82
2022/05/22 06:30:48;;;;;;;3.73;3.43;;;16.00;99.90;;;;;;4942291;29;20454;-82
2022/05/22 06:33:16;;;;;;;4.20;3.73;;;16.10;99.90;;;;;;4942138;29;20454;-82
2022/05/22 06:35:43;;;;;;;5.00;3.87;;;16.20;99.90;;;;;;4943992;29;20954;-81
2022/05/22 06:39:49;;;;;;;4.20;3.90;;;16.30;99.90;;;;;;4950541;29;20514;-81
2022/05/22 06:40:57;;;;;;;3.90;3.57;;;16.40;99.90;;;;;;4954685;29;20463;-82
2022/05/22 06:43:25;;;;;;;7.20;3.67;;;16.50;99.90;;;;;;4958598;29;20491;-82
2022/05/22 06:45:52;;;;;;;4.30;2.90;;;16.70;99.90;;;;;;4958675;28;20274;-82
2022/05/22 06:48:19;;;;;;;3.63;3.27;;;16.70;99.90;;;;;;4957568;29;20454;-82
2022/05/22 06:50:46;;;;;;;2.90;2.70;;;16.90;99.90;;;;;;4959361;29;20472;-82
2022/05/22 06:53:13;;;;;;;2.70;2.50;;;17.00;99.90;;;;;;4959157;29;20476;-82
2022/05/22 06:55:41;;;;;;;2.90;2.70;;;17.10;99.90;;;;;;4959449;29;20441;-83
2022/05/22 06:58:08;;;;;;;3.40;3.10;;;17.20;99.90;;;;;;4958722;29;20481;-82
2022/05/22 07:00:36;;;;;;;4.70;4.30;;;17.30;99.90;;;;;;4958522;29;20525;-83
2022/05/22 07:03:03;;;;;;;3.33;3.13;;;17.40;99.90;;;;;;4958625;29;20431;-84
2022/05/22 07:05:31;;;;;;;3.37;2.87;;;17.40;99.90;;;;;;4958051;29;20463;-82
2022/05/22 07:07:58;;;;;;;2.97;2.67;;;17.50;99.90;;;;;;4957130;29;20458;-82
2022/05/22 07:13:12;;;;;;;2.60;1.77;;;17.60;99.30;;;;;;4952056;29;20519;-82
2022/05/22 07:15:40;;;;;;;1.90;1.80;;;17.70;99.20;;;;;;4956699;29;20515;-82
2022/05/22 07:18:08;;;;;;;3.33;2.47;;;17.90;99.00;;;;;;4956447;28;20441;-84
2022/05/22 07:20:34;;;;;;;2.30;2.10;;;17.90;98.40;;;;;;4956860;29;20452;-82
2022/05/22 07:23:01;;;;;;;2.63;2.43;;;18.10;98.90;;;;;;4955548;29;20445;-82
2022/05/22 07:25:28;;;;;;;2.30;2.20;;;18.20;97.50;;;;;;4954949;29;20452;-86
2022/05/22 07:27:55;;;;;;;2.20;2.10;;;18.30;98.30;;;;;;4959488;29;20480;-85
2022/05/22 07:30:22;;;;;;;3.93;2.90;;;18.30;97.70;;;;;;4958474;29;20955;-84
2022/05/22 07:32:50;;;;;;;2.33;2.10;;;18.20;97.50;;;;;;4957834;28;20484;-85
2022/05/22 07:35:17;;;;;;;3.30;2.47;;;18.20;97.30;;;;;;4952575;29;20488;-86
2022/05/22 07:37:43;;;;;;;2.83;2.60;;;18.40;98.00;;;;;;4957252;29;20461;-83
2022/05/22 07:40:12;;;;;;;3.13;2.30;;;18.60;97.70;;;;;;4956849;29;20457;-85
2022/05/22 07:42:40;;;;;;;1.90;1.80;;;18.70;97.30;;;;;;4957155;29;20492;-86
2022/05/22 07:45:10;;;;;;;2.00;1.90;;;18.80;97.20;;;;;;4957999;29;20480;-85
2022/05/22 07:47:37;;;;;;;2.17;1.97;;;18.90;98.60;;;;;;4957727;29;20459;-85
2022/05/22 07:52:47;;;;;;;3.57;3.20;;;18.80;96.80;;;;;;4956731;29;20520;-85
2022/05/22 07:55:15;;;;;;;4.33;2.20;;;18.90;96.40;;;;;;4952195;29;20509;-79
2022/05/22 07:57:42;;;;;;;2.43;2.10;;;19.00;97.60;;;;;;4970483;23;20544;-81
2022/05/22 08:00:09;;;;;;;2.70;2.47;;;19.20;97.40;;;;;;4945348;29;20475;-79
2022/05/22 08:02:36;;;;;;;3.60;2.50;;;19.30;95.60;;;;;;4958009;28;20502;-79
2022/05/22 08:05:05;;;;;;;2.17;1.97;;;19.40;96.20;;;;;;4955172;29;20458;-79
2022/05/22 08:07:50;;;;;;;3.13;2.13;;;19.50;96.10;;;;;;4941210;29;21017;-82
2022/05/22 08:10:18;;;;;;;1.93;1.83;;;19.60;95.50;;;;;;4940121;29;20522;-81
2022/05/22 08:12:47;;;;;;;2.53;2.33;;;19.50;95.10;;;;;;4943200;29;20443;-81
2022/05/22 08:15:17;;;;;;;4.20;3.10;;;19.60;95.60;;;;;;4943633;29;20449;-81
2022/05/22 08:17:44;;;;;;;3.60;2.60;;;19.70;94.20;;;;;;4938738;29;20442;-80
2022/05/22 08:20:15;;;;;;;2.40;2.20;;;19.60;95.00;;;;;;4942311;29;20455;-80
2022/05/22 08:22:44;;;;;;;2.17;2.03;;;19.70;94.00;;;;;;4942312;29;20488;-79
2022/05/22 08:25:12;;;;;;;1.93;1.83;;;19.90;94.70;;;;;;4943622;29;20530;-80
2022/05/22 08:27:38;;;;;;;2.83;1.90;;;20.10;95.00;;;;;;4939223;29;20966;-80
2022/05/22 08:30:06;;;;;;;2.73;1.30;;;20.20;94.80;;;;;;4940550;29;20446;-80
2022/05/22 08:32:37;;;;;;;2.60;1.80;;;20.20;93.00;;;;;;4950738;29;20454;-80
2022/05/22 08:35:04;;;;;;;1.83;1.73;;;20.30;93.20;;;;;;4952402;29;20468;-80
2022/05/22 08:37:32;;;;;;;1.20;1.20;;;20.30;92.40;;;;;;4945214;29;20465;-83
2022/05/22 08:39:59;;;;;;;2.37;2.17;;;20.30;92.60;;;;;;4941012;29;20459;-81
2022/05/22 08:42:33;;;;;;;1.70;1.60;;;20.30;92.10;;;;;;4943413;29;20485;-81
2022/05/22 08:45:47;;;;;;;1.70;1.50;;;20.30;91.70;;;;;;4950766;29;20458;-86
2022/05/22 08:51:45;;;;;;;1.90;1.80;;;20.40;91.20;;;;;;4934287;29;20446;-84
2022/05/22 08:54:20;;;;;;;2.30;2.00;;;20.40;91.90;;;;;;4951563;29;20455;-84
2022/05/22 08:59:37;;;;;;;2.63;1.90;;;20.40;92.30;;;;;;4942231;29;20560;-85
2022/05/22 09:02:16;;;;;;;2.17;2.07;;;20.70;91.70;;;;;;4939286;29;20494;-84
2022/05/22 09:04:47;;;;;;;2.13;1.83;;;20.90;92.80;;;;;;4939110;29;20469;-84
2022/05/22 09:07:20;;;;;;;2.17;1.97;;;21.10;91.60;;;;;;4938484;29;20499;-85
2022/05/22 09:09:52;;;;;;;1.93;1.77;;;21.20;91.40;;;;;;4939129;29;20485;-88
2022/05/22 09:12:59;;;;;;;2.33;2.23;;;21.30;90.70;;;;;;4938938;29;20462;-83
2022/05/22 09:15:31;;;;;;;2.03;1.90;;;21.40;91.00;;;;;;4916326;29;20957;-85
2022/05/22 09:18:02;;;;;;;4.60;1.90;;;21.60;92.00;;;;;;4921958;29;20488;-84
2022/05/22 09:20:43;;;;;;;2.13;1.80;;;21.70;91.80;;;;;;4937557;29;20488;-83
2022/05/22 09:23:25;;;;;;;2.40;2.20;;;21.80;91.60;;;;;;4937726;29;20546;-83
2022/05/22 09:26:02;;;;;;;2.90;2.10;;;22.00;91.60;;;;;;4937516;29;20468;-82
2022/05/22 09:28:42;;;;;;;1.83;1.73;;;22.20;91.30;;;;;;4937184;29;20835;-83
2022/05/22 09:31:20;;;;;;;2.23;2.03;;;22.40;90.50;;;;;;4937336;29;20457;-83
2022/05/22 09:33:56;;;;;;;2.20;2.10;;;22.50;89.30;;;;;;4937287;29;20468;-83
2022/05/22 09:36:32;;;;;;;2.50;2.33;;;22.60;89.20;;;;;;4937264;29;20552;-82
2022/05/22 09:39:14;;;;;;;1.77;1.67;;;22.50;86.80;;;;;;4937606;29;20834;-83
2022/05/22 09:42:00;;;;;;;1.83;1.73;;;22.50;86.20;;;;;;4937216;29;20884;-84
2022/05/22 09:44:49;;;;;;;2.67;2.23;;;22.80;88.80;;;;;;4936708;29;20457;-84
2022/05/22 09:47:29;;;;;;;1.90;1.80;;;22.90;87.10;;;;;;4919290;29;20462;-83
2022/05/22 09:50:20;;;;;;;2.03;1.93;;;23.00;89.00;;;;;;4920078;29;20481;-82
2022/05/22 09:52:54;;;;;;;2.60;2.30;;;23.20;88.30;;;;;;4936644;29;20462;-83
2022/05/22 09:55:31;;;;;;;2.20;2.00;;;23.30;88.70;;;;;;4936892;29;20453;-82
2022/05/22 09:58:31;;;;;;;4.20;2.73;;;23.20;82.80;;;;;;4936374;29;21029;-83
2022/05/22 10:01:04;;;;;;;1.73;1.63;;;23.10;82.20;;;;;;4938479;29;20445;-82
2022/05/22 10:03:44;;;;;;;3.80;1.70;;;23.00;82.40;;;;;;4936727;29;20537;-82
2022/05/22 10:06:21;;;;;;;2.00;1.90;;;23.10;83.50;;;;;;4939264;29;20461;-80
2022/05/22 10:08:59;;;;;;;3.83;2.50;;;23.30;85.00;;;;;;4942240;29;20485;-81
2022/05/22 10:11:32;;;;;;;1.70;1.60;;;23.60;82.60;;;;;;4941627;29;20473;-81
2022/05/22 10:31:50;;;;;;;2.10;1.90;;;25.30;80.30;;;;;;4839683;29;20487;-82
2022/05/22 10:38:13;;;;;;;1.70;1.60;;;25.60;76.80;;;;;;4781208;29;20932;-84
2022/05/22 10:43:48;;;;;;;2.53;2.33;;;25.90;79.30;;;;;;4814041;29;20501;-84
2022/05/22 10:46:15;;;;;;;2.23;2.10;;;26.10;73.80;;;;;;4823411;29;20989;-84
2022/05/22 10:48:56;;;;;;;3.53;1.90;;;25.90;71.20;;;;;;4874964;29;20488;-84
2022/05/22 10:51:25;;;;;;;2.40;2.20;;;26.00;72.70;;;;;;4913975;29;20461;-83
2022/05/22 10:53:55;;;;;;;2.20;2.00;;;25.80;71.90;;;;;;4933090;29;20484;-83
2022/05/22 10:56:26;;;;;;;2.40;2.20;;;25.80;70.80;;;;;;4930107;29;20455;-84
2022/05/22 10:58:56;;;;;;;2.13;2.03;;;25.70;70.90;;;;;;4935177;29;20493;-84
2022/05/22 11:01:25;;;;;;;2.33;2.00;;;25.90;69.90;;;;;;4934807;29;20453;-84
2022/05/22 11:04:11;;;;;;;2.97;2.67;;;26.20;71.60;;;;;;4935307;29;20461;-86
2022/05/22 11:06:40;;;;;;;1.90;1.80;;;26.60;70.00;;;;;;4936150;29;20486;-83
2022/05/22 11:09:08;;;;;;;2.13;1.87;;;27.10;68.50;;;;;;4935618;29;20503;-83
2022/05/22 11:11:37;;;;;;;2.23;2.10;;;27.60;65.00;;;;;;4935967;29;20461;-83
2022/05/22 11:14:15;;;;;;;2.03;1.83;;;28.00;63.30;;;;;;4935832;29;20456;-81
2022/05/22 11:16:44;;;;;;;3.53;2.30;;;28.40;63.90;;;;;;4936881;29;20480;-83
2022/05/22 11:19:24;;;;;;;1.63;1.53;;;28.70;59.20;;;;;;4934874;29;20550;-82
2022/05/22 11:22:08;;;;;;;3.67;2.37;;;29.00;59.00;;;;;;4937312;29;20544;-82
2022/05/22 11:24:43;;;;;;;2.47;2.27;;;28.90;57.00;;;;;;4938705;29;20955;-82
2022/05/22 11:27:21;;;;;;;2.27;2.07;;;29.10;58.30;;;;;;4939107;29;20457;-81
2022/05/22 11:30:04;;;;;;;2.10;2.00;;;29.40;61.50;;;;;;4938295;29;20473;-82
2022/05/22 11:32:45;;;;;;;2.87;1.87;;;29.80;57.70;;;;;;4938124;29;20464;-81
2022/05/22 11:35:39;;;;;;;1.93;1.80;;;30.00;55.40;;;;;;4937768;29;20447;-82
2022/05/22 11:38:25;;;;;;;2.00;1.90;;;30.50;57.20;;;;;;4936669;29;20479;-82
2022/05/22 11:41:03;;;;;;;2.50;1.87;;;30.90;53.10;;;;;;4936439;29;20460;-83
2022/05/22 11:43:53;;;;;;;2.40;2.10;;;31.10;52.10;;;;;;4936385;29;20910;-82
2022/05/22 11:46:29;;;;;;;1.90;1.80;;;31.70;52.80;;;;;;4936063;29;20547;-82
2022/05/22 11:49:17;;;;;;;1.50;1.40;;;32.10;50.20;;;;;;4936587;29;20475;-82
2022/05/22 11:52:09;;;;;;;2.63;1.77;;;32.60;50.10;;;;;;4935670;29;20463;-82
2022/05/22 11:54:52;;;;;;;1.83;1.73;;;33.30;51.60;;;;;;4935713;29;20488;-82
2022/05/22 11:57:30;;;;;;;2.03;1.93;;;34.00;48.50;;;;;;4935566;29;20453;-82
2022/05/22 12:00:17;;;;;;;1.70;1.60;;;34.40;47.80;;;;;;4935598;29;20465;-82
2022/05/22 12:03:09;;;;;;;2.10;1.90;;;34.20;47.00;;;;;;4935678;29;20572;-82
2022/05/22 12:05:48;;;;;;;2.40;1.87;;;33.90;45.60;;;;;;4935257;29;20457;-82
2022/05/22 12:08:34;;;;;;;2.10;1.90;;;33.80;45.70;;;;;;4935337;29;20492;-82
2022/05/22 12:11:08;;;;;;;6.43;3.33;;;33.80;47.70;;;;;;4935870;29;20766;-82
2022/05/22 12:13:43;;;;;;;1.80;1.70;;;34.30;43.10;;;;;;4936046;29;20472;-82
2022/05/22 12:16:13;;;;;;;2.30;2.20;;;34.60;43.00;;;;;;4935348;29;20453;-82
2022/05/22 12:18:50;;;;;;;3.87;2.03;;;34.60;41.80;;;;;;4935087;29;20473;-82
2022/05/22 12:21:25;;;;;;;3.30;1.90;;;34.10;42.80;;;;;;4934644;29;20469;-82
2022/05/22 12:23:55;;;;;;;1.80;1.70;;;34.00;41.30;;;;;;4935624;29;20493;-82
2022/05/22 12:26:25;;;;;;;1.80;1.70;;;34.30;40.90;;;;;;4935640;29;20465;-82
2022/05/22 12:28:57;;;;;;;1.90;1.80;;;34.30;41.30;;;;;;4937362;29;20474;-82
2022/05/22 12:31:27;;;;;;;3.53;1.73;;;34.80;42.60;;;;;;4938056;29;20464;-83
2022/05/22 12:33:57;;;;;;;1.40;1.30;;;35.20;41.60;;;;;;4938748;29;20860;-83
2022/05/22 12:36:27;;;;;;;1.73;1.63;;;35.50;42.40;;;;;;4938401;29;20500;-82
2022/05/22 12:38:59;;;;;;;2.27;2.03;;;35.90;40.80;;;;;;4943795;29;20481;-83
2022/05/22 12:41:38;;;;;;;6.07;2.17;;;36.20;39.50;;;;;;4944509;29;20469;-82
2022/05/22 12:44:08;;;;;;;3.37;2.13;;;36.50;40.20;;;;;;4939425;29;20481;-83
2022/05/22 12:46:35;;;;;;;2.33;2.13;;;35.80;37.90;;;;;;4939654;29;20485;-82
2022/05/22 12:49:10;;;;;;;2.50;2.20;;;35.20;38.80;;;;;;4940064;29;20503;-82
2022/05/22 12:51:40;;;;;;;2.57;2.07;;;33.80;38.40;;;;;;4939241;29;20501;-83
2022/05/22 12:54:21;;;;;;;2.53;2.33;;;32.60;40.90;;;;;;4940590;29;20460;-82
2022/05/22 12:56:48;;;;;;;2.17;1.80;;;32.00;40.20;;;;;;4946797;29;20457;-82
2022/05/22 12:59:22;;;;;;;3.17;2.90;;;32.40;42.70;;;;;;4945863;29;20484;-82
2022/05/22 13:01:52;;;;;;;2.00;1.83;;;33.10;42.80;;;;;;4939120;29;20468;-82
2022/05/22 13:04:29;;;;;;;2.07;1.87;;;33.80;40.10;;;;;;4941455;29;20504;-82
2022/05/22 13:07:00;;;;;;;1.87;1.77;;;34.60;42.70;;;;;;4947797;29;20963;-82
2022/05/22 13:09:37;;;;;;;1.83;1.73;;;34.90;40.80;;;;;;4938957;29;20526;-82
2022/05/22 13:12:08;;;;;;;1.90;1.80;;;35.40;39.20;;;;;;4932526;29;20459;-83
2022/05/22 13:14:43;;;;;;;1.60;1.50;;;35.70;40.30;;;;;;4935730;29;20762;-82
2022/05/22 13:17:11;;;;;;;5.57;2.33;;;36.20;38.70;;;;;;4940402;29;20456;-83
2022/05/22 13:19:50;;;;;;;2.43;2.07;;;36.80;38.60;;;;;;4929470;29;20485;-83
2022/05/22 13:22:28;;;;;;;1.90;1.80;;;37.20;36.50;;;;;;4932220;29;20458;-82
2022/05/22 13:24:55;;;;;;;2.67;2.53;;;37.40;34.40;;;;;;4930225;29;20446;-84
2022/05/22 13:27:25;;;;;;;1.70;1.60;;;37.90;36.30;;;;;;4939697;29;20468;-83
2022/05/22 13:29:59;;;;;;;1.80;1.70;;;38.50;33.60;;;;;;4938509;29;20478;-83
2022/05/22 13:32:32;;;;;;;3.53;1.87;;;38.70;32.00;;;;;;4937497;29;20520;-85
2022/05/22 13:34:59;;;;;;;1.60;1.50;;;38.20;33.00;;;;;;4930744;29;20457;-83
2022/05/22 13:37:30;;;;;;;2.93;1.97;;;38.10;34.50;;;;;;4928507;29;20887;-83
2022/05/22 13:40:03;;;;;;;2.00;1.90;;;38.60;33.80;;;;;;4924651;29;20459;-85
2022/05/22 13:43:25;;;;;;;2.07;1.87;;;39.10;33.50;;;;;;4931250;29;20521;-85
2022/05/22 13:46:32;;;;;;;3.50;2.33;;;38.70;32.90;;;;;;4927377;29;20445;-83
2022/05/22 13:49:17;;;;;;;1.90;1.80;;;38.50;33.10;;;;;;4930334;29;20496;-83